createdAt,value
2023-03-05T00:02:35.452Z,11.01
2023-03-05T00:14:35.441Z,11.01
2023-03-05T00:26:35.414Z,11.00
2023-03-05T00:38:35.352Z,10.99
2023-03-05T00:50:35.437Z,10.97
2023-03-05T01:02:35.432Z,10.96
2023-03-05T01:14:35.380Z,10.96
2023-03-05T01:26:35.414Z,10.97
2023-03-05T01:38:35.318Z,10.94
2023-03-05T01:50:35.413Z,10.95
2023-03-05T02:02:35.335Z,10.93
2023-03-05T02:14:35.396Z,10.93
2023-03-05T02:26:35.412Z,10.92
2023-03-05T02:38:35.318Z,10.91
2023-03-05T02:50:35.354Z,10.91
2023-03-05T03:02:35.365Z,10.91
2023-03-05T03:14:35.334Z,10.91
2023-03-05T03:26:35.427Z,10.90
2023-03-05T03:38:35.338Z,10.90
2023-03-05T03:50:35.331Z,10.89
2023-03-05T04:02:35.490Z,10.89
2023-03-05T04:14:35.333Z,10.87
2023-03-05T04:26:35.351Z,10.86
2023-03-05T04:38:35.347Z,10.86
2023-03-05T04:50:35.360Z,10.85
2023-03-05T05:02:35.528Z,10.86
2023-03-05T05:14:35.412Z,10.86
2023-03-05T05:26:35.320Z,10.84
2023-03-05T05:38:35.329Z,10.83
2023-03-05T05:50:35.425Z,10.83
2023-03-05T06:02:35.470Z,10.82
2023-03-05T06:14:35.322Z,10.83
2023-03-05T06:26:35.329Z,10.83
2023-03-05T06:38:35.326Z,10.82
2023-03-05T06:50:35.325Z,10.83
2023-03-05T07:02:35.467Z,10.81
2023-03-05T07:14:35.377Z,10.82
2023-03-05T07:26:35.418Z,10.82
2023-03-05T07:38:35.329Z,10.80
2023-03-05T07:50:35.449Z,10.81
2023-03-05T08:02:35.423Z,10.81
2023-03-05T08:14:35.416Z,10.81
2023-03-05T08:26:35.320Z,10.81
2023-03-05T08:38:35.339Z,10.80
2023-03-05T08:50:37.018Z,10.81
2023-03-05T09:02:35.458Z,10.81
2023-03-05T09:14:35.339Z,10.82
2023-03-05T09:26:35.424Z,10.84
2023-03-05T09:38:35.322Z,10.87
2023-03-05T09:50:35.339Z,10.98
2023-03-05T10:02:35.414Z,10.94
2023-03-05T10:14:35.370Z,10.92
2023-03-05T10:26:35.335Z,10.91
2023-03-05T10:38:35.330Z,10.91
2023-03-05T10:50:35.346Z,10.91
2023-03-05T11:02:35.393Z,10.93
2023-03-05T11:14:35.341Z,10.96
2023-03-05T11:26:35.523Z,10.95
2023-03-05T11:38:35.337Z,10.98
2023-03-05T11:50:35.351Z,10.99
2023-03-05T12:02:35.466Z,10.95
2023-03-05T12:14:35.396Z,10.93
2023-03-05T12:26:35.378Z,10.95
2023-03-05T12:38:35.402Z,10.93
2023-03-05T12:50:35.668Z,10.94
2023-03-05T13:02:35.365Z,10.92
2023-03-05T13:14:35.339Z,10.92
2023-03-05T13:26:35.326Z,10.93
2023-03-05T13:38:35.406Z,10.96
2023-03-05T13:50:35.399Z,10.97
2023-03-05T14:02:35.402Z,10.95
2023-03-05T14:14:35.337Z,10.93
2023-03-05T14:26:35.330Z,10.94
2023-03-05T14:38:35.447Z,10.93
2023-03-05T14:50:35.397Z,10.91
2023-03-05T15:02:35.363Z,10.92
2023-03-05T15:14:35.404Z,10.91
2023-03-05T15:26:35.338Z,10.89
2023-03-05T15:38:36.693Z,10.89
2023-03-05T15:50:35.339Z,10.89
2023-03-05T16:02:35.373Z,10.87
2023-03-05T16:14:35.392Z,10.86
2023-03-05T16:26:35.366Z,10.87
2023-03-05T16:38:35.436Z,10.85
2023-03-05T16:50:35.370Z,10.86
2023-03-05T17:02:35.385Z,10.84
2023-03-05T17:14:35.357Z,10.83
2023-03-05T17:26:35.404Z,10.84
2023-03-05T17:38:35.408Z,10.84
2023-03-05T17:50:35.333Z,10.82
2023-03-05T18:02:35.344Z,10.81
2023-03-05T18:14:35.347Z,10.80
2023-03-05T18:26:35.358Z,10.80
2023-03-05T18:38:35.427Z,10.79
2023-03-05T18:50:35.393Z,10.80
2023-03-05T19:02:35.329Z,10.78
2023-03-05T19:14:35.398Z,10.79
2023-03-05T19:26:35.337Z,10.78
2023-03-05T19:38:35.332Z,10.76
2023-03-05T19:50:35.343Z,10.76
2023-03-05T20:02:35.376Z,10.77
2023-03-05T20:14:35.452Z,10.75
2023-03-05T20:26:35.709Z,10.74
2023-03-05T20:38:35.377Z,10.74
2023-03-05T20:50:35.409Z,10.75
2023-03-05T21:02:35.439Z,10.74
2023-03-05T21:14:35.333Z,10.72
2023-03-05T21:26:35.390Z,10.73
2023-03-05T21:38:35.394Z,10.71
2023-03-05T21:50:35.373Z,10.72
2023-03-05T22:02:35.338Z,10.70
2023-03-05T22:14:35.408Z,10.70
2023-03-05T22:26:35.344Z,10.70
2023-03-05T22:38:35.397Z,10.68
2023-03-05T22:50:35.322Z,10.69
2023-03-05T23:02:35.318Z,10.66
2023-03-05T23:14:35.460Z,10.66
2023-03-05T23:26:35.402Z,10.65
2023-03-05T23:38:35.408Z,10.65
2023-03-05T23:50:35.381Z,10.63
